createdAt,value
2023-05-02T00:02:00.448Z,101538.91
2023-05-02T00:04:28.451Z,101532.75
2023-05-02T00:06:58.054Z,101534.09
2023-05-02T00:09:26.044Z,101519.97
2023-05-02T00:11:53.942Z,101531.03
2023-05-02T00:14:21.884Z,101517.69
2023-05-02T00:16:49.833Z,101511.84
2023-05-02T00:19:17.772Z,101515.22
2023-05-02T00:21:48.713Z,101515.22
2023-05-02T00:24:18.772Z,101519.34
2023-05-02T00:26:46.871Z,101520.13
2023-05-02T00:29:14.776Z,101525.56
2023-05-02T00:31:42.940Z,101522.28
2023-05-02T00:34:11.016Z,101519.97
2023-05-02T00:36:38.899Z,101524.25
2023-05-02T00:39:06.832Z,101530.66
2023-05-02T00:41:36.113Z,101521.28
2023-05-02T00:44:04.114Z,101532.84
2023-05-02T00:46:32.145Z,101527.75
2023-05-02T00:49:00.123Z,101528.06
2023-05-02T00:51:28.967Z,101530.66
2023-05-02T00:53:57.885Z,101530.81
2023-05-02T00:56:25.849Z,101530.00
2023-05-02T00:58:55.561Z,101526.59
2023-05-02T01:01:31.562Z,101528.34
2023-05-02T01:04:09.946Z,101536.72
2023-05-02T01:06:42.263Z,101528.28
2023-05-02T01:09:19.953Z,101534.84
2023-05-02T01:11:52.025Z,101534.84
2023-05-02T01:14:22.805Z,101531.69
2023-05-02T01:16:51.616Z,101528.56
2023-05-02T01:19:25.632Z,101544.09
2023-05-02T01:21:54.322Z,101541.09
2023-05-02T01:24:27.771Z,101537.06
2023-05-02T01:27:03.649Z,101543.16
2023-05-02T01:29:33.750Z,101538.66
2023-05-02T01:32:03.585Z,101549.84
2023-05-02T01:34:32.676Z,101542.00
2023-05-02T01:37:01.205Z,101544.06
2023-05-02T01:39:29.649Z,101545.56
2023-05-02T01:41:58.339Z,101540.75
2023-05-02T01:44:27.023Z,101544.56
2023-05-02T01:46:56.888Z,101546.25
2023-05-02T01:49:25.842Z,101543.69
2023-05-02T01:51:54.303Z,101549.53
2023-05-02T01:54:24.728Z,101552.47
2023-05-02T01:56:53.107Z,101555.56
2023-05-02T01:59:21.771Z,101557.13
2023-05-02T02:01:51.729Z,101565.50
2023-05-02T02:04:21.418Z,101564.28
2023-05-02T02:06:52.268Z,101569.59
2023-05-02T02:09:20.851Z,101571.09
2023-05-02T02:11:52.379Z,101578.72
2023-05-02T02:14:22.921Z,101578.63
2023-05-02T02:16:52.273Z,101588.28
2023-05-02T02:19:22.292Z,101596.53
2023-05-02T02:21:50.853Z,101599.25
2023-05-02T02:24:20.072Z,101603.38
2023-05-02T02:26:48.091Z,101600.41
2023-05-02T02:29:15.968Z,101613.31
2023-05-02T02:31:43.870Z,101623.91
2023-05-02T02:34:11.838Z,101623.75
2023-05-02T02:36:47.313Z,101632.53
2023-05-02T02:39:21.488Z,101641.50
2023-05-02T02:41:54.452Z,101646.41
2023-05-02T02:44:28.708Z,101655.44
2023-05-02T02:47:04.246Z,101667.31
2023-05-02T02:49:36.964Z,101659.16
2023-05-02T02:52:11.911Z,101678.03
2023-05-02T02:54:43.181Z,101675.41
2023-05-02T02:57:17.962Z,101690.50
2023-05-02T02:59:52.947Z,101688.63
2023-05-02T03:02:20.937Z,101686.53
2023-05-02T03:04:50.452Z,101697.84
2023-05-02T03:07:19.753Z,101693.41
2023-05-02T03:09:48.660Z,101710.31
2023-05-02T03:12:16.621Z,101714.41
2023-05-02T03:14:44.684Z,101716.72
2023-05-02T03:17:12.626Z,101718.84
2023-05-02T03:19:41.047Z,101732.19
2023-05-02T03:22:09.000Z,101730.97
2023-05-02T03:24:38.544Z,101736.53
2023-05-02T03:27:06.468Z,101745.75
2023-05-02T03:29:34.385Z,101752.69
2023-05-02T03:32:02.498Z,101747.81
2023-05-02T03:34:30.428Z,101755.78
2023-05-02T03:36:58.413Z,101767.00
2023-05-02T03:39:26.500Z,101769.25
2023-05-02T03:41:55.795Z,101775.72
2023-05-02T03:44:23.772Z,101775.34
2023-05-02T03:46:51.818Z,101784.28
2023-05-02T03:49:19.973Z,101787.69
2023-05-02T03:51:48.055Z,101787.75
2023-05-02T03:54:15.947Z,101787.63
2023-05-02T03:56:44.592Z,101794.13
2023-05-02T03:59:14.319Z,101804.06
2023-05-02T04:01:42.331Z,101807.91
2023-05-02T04:04:11.466Z,101808.56
2023-05-02T04:06:39.823Z,101803.97
2023-05-02T04:09:07.780Z,101817.28
2023-05-02T04:11:35.686Z,101829.13
2023-05-02T04:14:04.470Z,101831.03
2023-05-02T04:16:33.758Z,101832.56
2023-05-02T04:19:01.754Z,101852.00
2023-05-02T04:21:29.664Z,101839.59
2023-05-02T04:23:57.613Z,101846.69
2023-05-02T04:26:25.781Z,101859.97
2023-05-02T04:28:53.672Z,101871.06
2023-05-02T04:31:21.665Z,101868.53
2023-05-02T04:33:50.958Z,101879.84
2023-05-02T04:36:19.145Z,101881.13
2023-05-02T04:38:47.233Z,101877.88
2023-05-02T04:41:16.253Z,101882.59
2023-05-02T04:43:44.253Z,101886.72
2023-05-02T04:46:12.363Z,101888.88
2023-05-02T04:48:42.329Z,101894.00
2023-05-02T04:51:11.895Z,101900.63
2023-05-02T04:53:39.907Z,101902.53
2023-05-02T04:56:08.703Z,101910.25
2023-05-02T04:58:36.623Z,101912.25
2023-05-02T05:01:04.552Z,101918.78
2023-05-02T05:03:33.527Z,101918.00
2023-05-02T05:06:02.444Z,101930.38
2023-05-02T05:08:31.984Z,101932.94
2023-05-02T05:11:00.112Z,101938.13
2023-05-02T05:13:28.471Z,101940.28
2023-05-02T05:15:56.430Z,101935.16
2023-05-02T05:18:24.464Z,101940.53
2023-05-02T05:20:52.354Z,101943.28
2023-05-02T05:23:20.266Z,101949.84
2023-05-02T05:25:49.528Z,101954.91
2023-05-02T05:28:18.634Z,101956.66
2023-05-02T05:30:46.721Z,101953.53
2023-05-02T05:33:14.831Z,101965.53
2023-05-02T05:35:42.802Z,101973.63
2023-05-02T05:38:10.699Z,101976.00
2023-05-02T05:40:38.594Z,101976.97
2023-05-02T05:43:07.945Z,101972.34
2023-05-02T05:45:35.847Z,101981.75
2023-05-02T05:48:03.796Z,101991.09
2023-05-02T05:50:31.744Z,101986.03
2023-05-02T05:53:00.021Z,101999.78
2023-05-02T05:55:28.886Z,102008.75
2023-05-02T05:57:56.826Z,102001.88
2023-05-02T06:00:26.427Z,102003.66
2023-05-02T06:02:54.490Z,102006.38
2023-05-02T06:05:22.424Z,102017.81
2023-05-02T06:07:50.313Z,102012.56
2023-05-02T06:10:18.356Z,102010.81
2023-05-02T06:12:47.230Z,102018.56
2023-05-02T06:15:16.622Z,102023.59
2023-05-02T06:17:46.059Z,102027.72
2023-05-02T06:20:14.951Z,102025.41
2023-05-02T06:22:43.586Z,102028.31
2023-05-02T06:25:11.517Z,102038.66
2023-05-02T06:27:39.460Z,102048.34
2023-05-02T06:30:08.824Z,102050.47
2023-05-02T06:32:36.776Z,102058.53
2023-05-02T06:35:06.917Z,102065.66
2023-05-02T06:37:35.942Z,102060.72
2023-05-02T06:40:04.589Z,102070.25
2023-05-02T06:42:32.580Z,102076.47
2023-05-02T06:45:00.765Z,102075.34
2023-05-02T06:47:28.966Z,102083.13
2023-05-02T06:49:57.488Z,102080.06
2023-05-02T06:52:26.869Z,102087.56
2023-05-02T06:54:54.862Z,102083.75
2023-05-02T06:57:22.815Z,102101.94
2023-05-02T06:59:50.716Z,102095.81
2023-05-02T07:02:18.894Z,102122.06
2023-05-02T07:04:47.086Z,102112.75
2023-05-02T07:07:18.708Z,102120.00
2023-05-02T07:09:48.039Z,102123.28
2023-05-02T07:12:15.923Z,102120.94
2023-05-02T07:14:43.871Z,102121.41
2023-05-02T07:17:11.836Z,102127.97
2023-05-02T07:19:40.035Z,102121.09
2023-05-02T07:22:08.167Z,102133.38
2023-05-02T07:24:36.736Z,102131.41
2023-05-02T07:27:06.277Z,102139.09
2023-05-02T07:29:34.209Z,102158.34
2023-05-02T07:32:02.161Z,102152.59
2023-05-02T07:34:30.172Z,102155.06
2023-05-02T07:36:58.093Z,102153.56
2023-05-02T07:39:26.623Z,102160.47
2023-05-02T07:41:54.599Z,102166.44
2023-05-02T07:44:24.235Z,102158.91
2023-05-02T07:46:52.141Z,102159.78
2023-05-02T07:49:20.497Z,102172.09
2023-05-02T07:51:48.383Z,102169.84
2023-05-02T07:54:16.940Z,102162.25
2023-05-02T07:56:45.106Z,102163.13
2023-05-02T07:59:12.994Z,102167.78
2023-05-02T08:01:42.685Z,102176.00
2023-05-02T08:04:11.722Z,102181.75
2023-05-02T08:06:39.876Z,102185.88
2023-05-02T08:09:07.803Z,102184.22
2023-05-02T08:11:35.769Z,102180.25
2023-05-02T08:14:03.642Z,102193.97
2023-05-02T08:16:31.563Z,102193.63
2023-05-02T08:19:00.924Z,102198.69
2023-05-02T08:21:29.371Z,102204.25
2023-05-02T08:23:59.498Z,102216.75
2023-05-02T08:26:28.050Z,102209.25
2023-05-02T08:28:56.065Z,102214.13
2023-05-02T08:31:24.118Z,102208.78
2023-05-02T08:33:52.121Z,102217.63
2023-05-02T08:36:21.457Z,102210.38
2023-05-02T08:38:49.644Z,102220.34
2023-05-02T08:41:19.330Z,102215.63
2023-05-02T08:43:47.998Z,102224.97
2023-05-02T08:46:17.647Z,102229.94
2023-05-02T08:48:48.210Z,102221.88
2023-05-02T08:53:53.786Z,102236.91
2023-05-02T08:56:22.246Z,102236.38
2023-05-02T08:58:50.372Z,102242.53
2023-05-02T09:01:21.441Z,102256.41
2023-05-02T09:03:49.722Z,102247.59
2023-05-02T09:06:19.121Z,102248.31
2023-05-02T09:08:48.810Z,102247.81
2023-05-02T09:11:18.527Z,102261.47
2023-05-02T09:13:47.039Z,102260.28
2023-05-02T09:16:17.715Z,102257.94
2023-05-02T09:18:47.519Z,102261.78
2023-05-02T09:21:19.705Z,102265.19
2023-05-02T09:23:49.916Z,102258.13
2023-05-02T09:26:21.246Z,102263.34
2023-05-02T09:28:50.160Z,102266.44
2023-05-02T09:31:31.259Z,102280.03
2023-05-02T09:34:10.742Z,102277.66
2023-05-02T09:36:41.416Z,102273.38
2023-05-02T09:39:11.517Z,102273.81
2023-05-02T09:41:45.019Z,102279.00
2023-05-02T09:44:14.099Z,102272.06
2023-05-02T09:46:42.979Z,102282.38
2023-05-02T09:49:11.157Z,102272.94
2023-05-02T09:51:39.317Z,102282.81
2023-05-02T09:54:07.218Z,102280.25
2023-05-02T09:56:56.435Z,102286.09
2023-05-02T09:59:25.020Z,102286.28
2023-05-02T10:01:57.499Z,102285.00
2023-05-02T10:04:26.573Z,102287.53
2023-05-02T10:06:55.671Z,102284.09
2023-05-02T10:09:23.995Z,102284.22
2023-05-02T10:11:55.356Z,102288.81
2023-05-02T10:14:25.135Z,102300.84
2023-05-02T10:16:57.093Z,102314.72
2023-05-02T10:19:28.676Z,102310.25
2023-05-02T10:21:56.987Z,102305.59
2023-05-02T10:24:25.473Z,102310.94
2023-05-02T10:26:55.054Z,102315.81
2023-05-02T10:29:23.055Z,102317.50
2023-05-02T10:31:51.615Z,102319.63
2023-05-02T10:34:20.084Z,102316.25
2023-05-02T10:36:48.100Z,102327.19
2023-05-02T10:39:16.479Z,102317.94
2023-05-02T10:41:44.855Z,102316.41
2023-05-02T10:44:14.164Z,102332.69
2023-05-02T10:46:43.115Z,102341.25
2023-05-02T10:49:12.161Z,102334.84
2023-05-02T10:51:41.721Z,102340.38
2023-05-02T10:54:25.353Z,102344.03
2023-05-02T10:57:04.318Z,102339.13
2023-05-02T10:59:36.505Z,102346.00
2023-05-02T11:02:07.092Z,102346.78
2023-05-02T11:05:01.443Z,102351.91
2023-05-02T11:07:30.694Z,102341.88
2023-05-02T11:10:31.502Z,102338.38
2023-05-02T11:13:01.265Z,102328.41
2023-05-02T11:15:58.681Z,102342.84
2023-05-02T11:18:27.028Z,102332.63
2023-05-02T11:21:28.950Z,102338.41
2023-05-02T11:24:35.809Z,102357.47
2023-05-02T11:27:38.585Z,102361.06
2023-05-02T11:30:09.214Z,102368.34
2023-05-02T11:33:17.604Z,102372.91
2023-05-02T11:35:48.219Z,102379.28
2023-05-02T11:38:18.329Z,102373.88
2023-05-02T11:40:59.575Z,102385.50
2023-05-02T11:43:31.915Z,102391.53
2023-05-02T11:46:02.219Z,102388.50
2023-05-02T11:48:31.962Z,102386.50
2023-05-02T11:51:05.436Z,102388.63
2023-05-02T11:54:14.020Z,102386.34
2023-05-02T11:56:42.641Z,102390.25
2023-05-02T11:59:11.287Z,102395.88
2023-05-02T12:01:49.604Z,102398.03
2023-05-02T12:04:22.017Z,102399.75
2023-05-02T12:06:57.973Z,102399.31
2023-05-02T12:09:26.055Z,102409.22
2023-05-02T12:11:54.855Z,102411.38
2023-05-02T12:14:29.831Z,102415.41
2023-05-02T12:16:59.209Z,102415.69
2023-05-02T12:19:27.321Z,102423.41
2023-05-02T12:21:55.453Z,102423.84
2023-05-02T12:24:24.844Z,102427.25
2023-05-02T12:27:10.644Z,102420.16
2023-05-02T12:29:39.947Z,102425.53
2023-05-02T12:32:08.397Z,102424.22
2023-05-02T12:34:37.480Z,102430.72
2023-05-02T12:37:06.289Z,102427.50
2023-05-02T12:39:39.749Z,102436.13
2023-05-02T12:42:11.955Z,102434.38
2023-05-02T12:44:40.878Z,102449.22
2023-05-02T12:47:09.219Z,102441.94
2023-05-02T12:49:50.150Z,102439.34
2023-05-02T12:52:18.117Z,102448.16
2023-05-02T12:54:47.474Z,102441.88
2023-05-02T12:57:25.971Z,102436.63
2023-05-02T12:59:55.273Z,102445.34
2023-05-02T13:02:23.720Z,102447.28
2023-05-02T13:04:52.252Z,102447.50
2023-05-02T13:07:20.160Z,102450.69
2023-05-02T13:09:49.447Z,102454.81
2023-05-02T13:12:18.157Z,102463.41
2023-05-02T13:14:46.272Z,102456.41
2023-05-02T13:17:14.543Z,102459.78
2023-05-02T13:19:47.566Z,102465.41
2023-05-02T13:22:22.029Z,102480.56
2023-05-02T13:24:51.521Z,102481.19
2023-05-02T13:27:19.710Z,102477.84
2023-05-02T13:29:47.622Z,102487.31
2023-05-02T13:32:15.632Z,102483.41
2023-05-02T13:34:43.805Z,102490.34
2023-05-02T13:37:11.935Z,102495.91
2023-05-02T13:39:39.949Z,102494.19
2023-05-02T13:42:09.262Z,102481.94
2023-05-02T13:44:37.261Z,102483.91
2023-05-02T13:47:05.204Z,102477.19
2023-05-02T13:49:33.142Z,102478.88
2023-05-02T13:52:01.096Z,102482.78
2023-05-02T13:54:29.162Z,102488.66
2023-05-02T13:56:57.095Z,102483.63
2023-05-02T13:59:26.428Z,102488.59
2023-05-02T14:01:54.701Z,102496.97
2023-05-02T14:04:23.666Z,102494.59
2023-05-02T14:06:51.694Z,102491.38
2023-05-02T14:09:20.625Z,102489.22
2023-05-02T14:11:48.819Z,102493.44
2023-05-02T14:14:16.760Z,102490.09
2023-05-02T14:16:47.603Z,102496.53
2023-05-02T14:19:16.717Z,102492.00
2023-05-02T14:21:44.656Z,102501.94
2023-05-02T14:24:14.926Z,102498.69
2023-05-02T14:26:42.820Z,102512.06
2023-05-02T14:29:10.828Z,102508.59
2023-05-02T14:31:38.787Z,102505.38
2023-05-02T14:34:09.023Z,102517.22
2023-05-02T14:36:37.079Z,102520.13
2023-05-02T14:39:05.204Z,102509.88
2023-05-02T14:41:33.098Z,102514.09
2023-05-02T14:44:03.497Z,102517.84
2023-05-02T14:46:34.393Z,102517.41
2023-05-02T14:49:02.485Z,102522.84
2023-05-02T14:51:32.385Z,102523.47
2023-05-02T14:54:00.390Z,102520.84
2023-05-02T14:56:28.276Z,102527.50
2023-05-02T14:58:56.211Z,102528.88
2023-05-02T15:01:24.225Z,102539.00
2023-05-02T15:04:06.032Z,102536.63
2023-05-02T15:06:37.068Z,102534.00
2023-05-02T15:09:05.660Z,102535.50
2023-05-02T15:11:33.568Z,102534.84
2023-05-02T15:14:01.469Z,102529.44
2023-05-02T15:16:30.450Z,102542.16
2023-05-02T15:18:58.462Z,102545.19
2023-05-02T15:21:26.464Z,102541.28
2023-05-02T15:23:56.149Z,102548.38
2023-05-02T15:26:24.357Z,102544.25
2023-05-02T15:28:52.318Z,102551.16
2023-05-02T15:31:20.240Z,102552.56
2023-05-02T15:33:48.173Z,102557.09
2023-05-02T15:36:16.068Z,102553.97
2023-05-02T15:38:44.026Z,102555.50
2023-05-02T15:41:13.282Z,102555.97
2023-05-02T15:43:41.196Z,102553.75
2023-05-02T15:46:09.123Z,102549.84
2023-05-02T15:48:37.082Z,102563.25
2023-05-02T15:51:06.367Z,102556.88
2023-05-02T15:53:35.128Z,102553.16
2023-05-02T15:56:03.060Z,102548.56
2023-05-02T15:58:32.477Z,102554.84
2023-05-02T16:01:00.431Z,102572.03
2023-05-02T16:03:28.473Z,102566.44
2023-05-02T16:05:58.412Z,102575.22
2023-05-02T16:08:26.421Z,102587.25
2023-05-02T16:10:54.367Z,102574.22
2023-05-02T16:13:22.318Z,102576.94
2023-05-02T16:15:52.162Z,102585.19
2023-05-02T16:18:20.191Z,102583.94
2023-05-02T16:20:49.794Z,102583.38
2023-05-02T16:23:17.920Z,102581.81
2023-05-02T16:25:46.034Z,102578.03
2023-05-02T16:28:13.918Z,102580.63
2023-05-02T16:30:41.796Z,102586.78
2023-05-02T16:33:11.213Z,102595.22
2023-05-02T16:35:39.216Z,102593.47
2023-05-02T16:38:07.180Z,102594.00
2023-05-02T16:40:35.157Z,102599.16
2023-05-02T16:43:03.058Z,102606.16
2023-05-02T16:45:30.995Z,102599.53
2023-05-02T16:47:58.999Z,102608.63
2023-05-02T16:50:28.284Z,102604.78
2023-05-02T16:52:56.177Z,102613.50
2023-05-02T16:55:24.092Z,102605.56
2023-05-02T16:57:52.050Z,102611.50
2023-05-02T17:00:20.741Z,102608.03
2023-05-02T17:02:48.837Z,102609.16
2023-05-02T17:05:16.976Z,102620.47
2023-05-02T17:07:46.247Z,102609.78
2023-05-02T17:10:14.405Z,102603.31
2023-05-02T17:12:42.755Z,102616.44
2023-05-02T17:15:11.488Z,102613.34
2023-05-02T17:17:40.068Z,102625.28
2023-05-02T17:20:08.661Z,102610.31
2023-05-02T17:22:38.133Z,102618.31
2023-05-02T17:25:07.974Z,102610.66
2023-05-02T17:27:37.674Z,102616.84
2023-05-02T17:30:08.560Z,102618.75
2023-05-02T17:32:37.703Z,102618.66
2023-05-02T17:35:06.640Z,102614.31
2023-05-02T17:37:34.587Z,102617.47
2023-05-02T17:40:04.027Z,102621.81
2023-05-02T17:42:33.503Z,102623.78
2023-05-02T17:45:01.414Z,102626.59
2023-05-02T17:47:29.320Z,102636.50
2023-05-02T17:49:57.609Z,102639.72
2023-05-02T17:52:25.660Z,102637.22
2023-05-02T17:54:53.581Z,102642.38
2023-05-02T17:57:21.467Z,102646.19
2023-05-02T17:59:53.771Z,102645.00
2023-05-02T18:02:22.721Z,102641.94
2023-05-02T18:04:50.686Z,102644.84
2023-05-02T18:07:23.695Z,102645.38
2023-05-02T18:09:52.119Z,102656.75
2023-05-02T18:12:20.284Z,102650.63
2023-05-02T18:14:49.099Z,102655.69
2023-05-02T18:17:20.459Z,102658.34
2023-05-02T18:19:50.105Z,102652.59
2023-05-02T18:22:21.312Z,102660.81
2023-05-02T18:24:49.605Z,102655.19
2023-05-02T18:27:18.063Z,102658.66
2023-05-02T18:29:46.092Z,102659.97
2023-05-02T18:32:14.511Z,102659.75
2023-05-02T18:34:43.767Z,102660.97
2023-05-02T18:37:11.711Z,102655.91
2023-05-02T18:39:39.603Z,102660.38
2023-05-02T18:42:08.323Z,102666.00
2023-05-02T18:44:36.294Z,102667.50
2023-05-02T18:47:04.177Z,102665.97
2023-05-02T18:49:32.249Z,102662.00
2023-05-02T18:52:03.253Z,102665.91
2023-05-02T18:54:33.503Z,102675.63
2023-05-02T18:57:02.132Z,102677.38
2023-05-02T18:59:30.182Z,102684.69
2023-05-02T19:01:58.251Z,102681.53
2023-05-02T19:04:26.446Z,102682.75
2023-05-02T19:06:54.391Z,102684.41
2023-05-02T19:09:24.078Z,102690.94
2023-05-02T19:11:54.012Z,102694.28
2023-05-02T19:14:21.967Z,102702.63
2023-05-02T19:16:49.876Z,102698.72
2023-05-02T19:19:18.431Z,102703.41
2023-05-02T19:21:48.087Z,102701.09
2023-05-02T19:24:16.842Z,102707.47
2023-05-02T19:26:46.178Z,102718.13
2023-05-02T19:29:14.135Z,102725.22
2023-05-02T19:31:42.634Z,102718.00
2023-05-02T19:34:10.588Z,102723.22
2023-05-02T19:36:38.698Z,102722.41
2023-05-02T19:39:06.661Z,102729.94
2023-05-02T19:41:34.578Z,102723.00
2023-05-02T19:44:03.954Z,102724.56
2023-05-02T19:46:32.294Z,102734.25
2023-05-02T19:49:00.278Z,102730.94
2023-05-02T19:51:29.619Z,102729.47
2023-05-02T19:53:58.931Z,102727.59
2023-05-02T19:56:27.499Z,102732.09
2023-05-02T19:58:56.788Z,102738.16
2023-05-02T20:01:26.460Z,102743.72
2023-05-02T20:03:54.834Z,102733.94
2023-05-02T20:06:22.821Z,102733.81
2023-05-02T20:08:52.497Z,102731.81
2023-05-02T20:11:20.409Z,102730.34
2023-05-02T20:13:48.376Z,102734.38
2023-05-02T20:16:16.421Z,102742.28
2023-05-02T20:18:45.775Z,102747.78
2023-05-02T20:21:13.683Z,102732.22
2023-05-02T20:23:43.455Z,102740.00
2023-05-02T20:26:11.607Z,102730.25
2023-05-02T20:28:39.484Z,102741.00
2023-05-02T20:31:07.405Z,102742.03
2023-05-02T20:33:44.546Z,102737.72
2023-05-02T20:36:15.803Z,102729.81
2023-05-02T20:38:44.679Z,102736.19
2023-05-02T20:41:13.955Z,102726.41
2023-05-02T20:43:44.954Z,102736.91
2023-05-02T20:46:16.211Z,102737.03
2023-05-02T20:48:44.315Z,102737.19
2023-05-02T20:51:12.252Z,102743.47
2023-05-02T20:53:41.589Z,102744.88
2023-05-02T20:56:09.456Z,102748.38
2023-05-02T20:58:37.436Z,102746.63
2023-05-02T21:01:05.782Z,102754.72
2023-05-02T21:03:36.631Z,102746.31
2023-05-02T21:06:05.013Z,102747.63
2023-05-02T21:08:33.083Z,102744.78
2023-05-02T21:11:02.375Z,102735.47
2023-05-02T21:13:30.300Z,102733.94
2023-05-02T21:15:58.246Z,102749.09
2023-05-02T21:18:26.196Z,102748.38
2023-05-02T21:20:54.083Z,102757.47
2023-05-02T21:23:21.975Z,102748.28
2023-05-02T21:25:49.884Z,102751.75
2023-05-02T21:28:19.150Z,102749.81
2023-05-02T21:30:47.054Z,102750.78
2023-05-02T21:33:17.686Z,102752.28
2023-05-02T21:35:46.404Z,102757.00
2023-05-02T21:38:14.330Z,102758.63
2023-05-02T21:40:42.448Z,102769.72
2023-05-02T21:43:10.333Z,102762.94
2023-05-02T21:45:46.460Z,102764.06
2023-05-02T21:48:14.638Z,102773.47
2023-05-02T21:50:43.160Z,102762.53
2023-05-02T21:53:11.405Z,102771.34
2023-05-02T21:55:39.947Z,102771.34
2023-05-02T21:58:08.981Z,102768.25
2023-05-02T22:00:38.381Z,102765.59
2023-05-02T22:03:09.919Z,102763.59
2023-05-02T22:05:39.961Z,102761.06
2023-05-02T22:08:08.899Z,102757.44
2023-05-02T22:10:38.619Z,102763.69
2023-05-02T22:13:07.258Z,102756.88
2023-05-02T22:15:35.210Z,102759.78
2023-05-02T22:18:04.911Z,102761.81
2023-05-02T22:20:34.268Z,102762.63
2023-05-02T22:23:02.294Z,102766.56
2023-05-02T22:25:30.197Z,102771.00
2023-05-02T22:28:01.045Z,102767.88
2023-05-02T22:30:28.960Z,102770.88
2023-05-02T22:32:56.906Z,102777.22
2023-05-02T22:35:24.857Z,102778.06
2023-05-02T22:37:54.153Z,102778.75
2023-05-02T22:40:22.075Z,102793.84
2023-05-02T22:42:49.983Z,102787.03
2023-05-02T22:45:18.180Z,102794.53
2023-05-02T22:47:46.133Z,102784.69
2023-05-02T22:50:14.363Z,102783.94
2023-05-02T22:52:43.065Z,102782.50
2023-05-02T22:55:12.857Z,102793.94
2023-05-02T22:57:40.969Z,102789.78
2023-05-02T23:00:10.711Z,102781.81
2023-05-02T23:02:38.882Z,102781.63
2023-05-02T23:05:07.672Z,102785.88
2023-05-02T23:07:35.660Z,102784.63
2023-05-02T23:10:03.866Z,102790.19
2023-05-02T23:12:33.370Z,102790.22
2023-05-02T23:15:01.405Z,102793.13
2023-05-02T23:17:29.378Z,102788.91
2023-05-02T23:19:58.183Z,102784.63
2023-05-02T23:22:26.177Z,102796.78
2023-05-02T23:24:54.101Z,102789.56
2023-05-02T23:27:22.029Z,102784.41
2023-05-02T23:29:51.611Z,102795.31
2023-05-02T23:32:20.212Z,102793.56
2023-05-02T23:34:49.441Z,102798.47
2023-05-02T23:37:17.365Z,102802.47
2023-05-02T23:39:45.271Z,102796.19
2023-05-02T23:42:13.199Z,102805.22
2023-05-02T23:44:41.099Z,102808.56
2023-05-02T23:47:10.817Z,102788.78
2023-05-02T23:49:38.735Z,102795.72
2023-05-02T23:52:06.713Z,102795.53
2023-05-02T23:54:35.570Z,102805.94
2023-05-02T23:57:03.532Z,102805.44
2023-05-02T23:59:31.399Z,102803.34
